Pagrindinis puslapis
METAR-TAF:

METAR-TAF

Oro uostai :

Baja Marė, Rumunija

platuma: 47-40N, ilguma: 023-35E, Aukštis: 218 m

Dabartinis oras

Ataskaita buvo paskelbta 24 minutes, ne 08:30 UTC
Vėjas 6 kt iš Rytų
Temperatūra 18°C
Drėgmė 73%
Slėgis 1018 hPa
Matomumas 10 km arba daugiau
nėra debesų žemiau 1500 m ir nėra kamuolinių lietaus debesų

METAR: LRBM 180830Z 10006KT CAVOK 18/13 Q1018

Laikas: 11:54 (08:54 UTC)

Prognozė

Ataskaita buvo paskelbta 54 minutes, ne 08:00 UTC
Prognozė galioja nuo 18 metu 09 UTC su 18 metu 18 UTC
Vėjas 6 kt iš Rytų/Pietryčių
Matomumas 10 km arba daugiau
nėra debesų žemiau 1500 m ir nėra kamuolinių lietaus debesų

TAF: LRBM 180800Z 1809/1818 12006KT CAVOK

Orai ataskaitas ir orų prognozės (METAR, TAF).

turimą stotys yra geltonos ir raudonos taškus žemėlapyje.

Perkelti pele per norėdami pamatyti stoties vardą.

Tada spustelėkite, norėdami matyti oro stebėjimo ir prognozės.

Norėdami pakeisti žemėlapį: spustelėkite ant žalios mygtukų su juodo kryžiaus žemyn,; žalią mygtuką su brūkšneliu, jei norite nutolinti; arba žalių rodyklių gretimoms žemėlapius.


METAR-TAF: